createdAt,value
2018-12-17T00:01:52.551Z,22.07
2018-12-17T00:04:18.972Z,19.73
2018-12-17T00:06:45.437Z,21.83
2018-12-17T00:09:11.900Z,21.33
2018-12-17T00:11:38.806Z,22.93
2018-12-17T00:14:05.610Z,23.30
2018-12-17T00:16:32.453Z,27.67
2018-12-17T00:18:58.917Z,21.27
2018-12-17T00:21:25.364Z,25.33
2018-12-17T00:23:51.774Z,22.00
2018-12-17T00:26:18.167Z,22.43
2018-12-17T00:28:44.944Z,20.37
2018-12-17T00:31:11.414Z,19.83
2018-12-17T00:33:38.332Z,26.30
2018-12-17T00:36:04.794Z,19.97
2018-12-17T00:38:31.235Z,19.97
2018-12-17T00:40:57.673Z,19.30
2018-12-17T00:43:24.250Z,20.73
2018-12-17T00:45:51.138Z,21.20
2018-12-17T00:48:17.681Z,23.03
2018-12-17T00:50:44.145Z,22.70
2018-12-17T00:53:10.557Z,23.10
2018-12-17T00:55:37.125Z,18.43
2018-12-17T00:58:03.682Z,21.80
2018-12-17T01:00:30.157Z,21.73
2018-12-17T01:02:56.934Z,20.13
2018-12-17T01:05:23.418Z,21.60
2018-12-17T01:07:49.841Z,17.40
2018-12-17T01:10:16.325Z,20.60
2018-12-17T01:12:42.775Z,18.87
2018-12-17T01:15:09.280Z,20.17
2018-12-17T01:17:36.137Z,18.37
2018-12-17T01:20:04.771Z,23.23
2018-12-17T01:22:31.216Z,18.30
2018-12-17T01:24:57.670Z,18.63
2018-12-17T01:27:24.032Z,16.60
2018-12-17T01:29:50.481Z,19.30
2018-12-17T01:32:16.971Z,20.63
2018-12-17T01:34:43.498Z,18.63
2018-12-17T01:37:09.894Z,23.53
2018-12-17T01:39:36.315Z,21.37
2018-12-17T01:42:02.839Z,19.57
2018-12-17T01:44:29.301Z,21.47
2018-12-17T01:46:56.142Z,24.73
2018-12-17T01:49:22.601Z,20.00
2018-12-17T01:51:49.171Z,20.23
2018-12-17T01:54:15.612Z,21.27
2018-12-17T01:56:42.443Z,21.77
2018-12-17T01:59:10.862Z,21.53
2018-12-17T02:01:37.373Z,20.03
2018-12-17T02:04:03.839Z,19.43
2018-12-17T02:06:30.246Z,21.90
2018-12-17T02:08:56.710Z,22.30
2018-12-17T02:11:23.479Z,18.97
2018-12-17T02:13:51.063Z,17.20
2018-12-17T02:16:17.437Z,23.27
2018-12-17T02:18:44.264Z,20.63
2018-12-17T02:21:10.789Z,19.53
2018-12-17T02:23:37.256Z,24.83
2018-12-17T02:26:04.169Z,24.60
2018-12-17T02:28:36.161Z,24.53
2018-12-17T02:30:59.066Z,22.53
2018-12-17T02:33:26.030Z,25.33
2018-12-17T02:35:52.489Z,20.30
2018-12-17T02:38:19.050Z,21.70
2018-12-17T02:40:45.547Z,19.33
2018-12-17T02:43:11.958Z,18.50
2018-12-17T02:45:38.372Z,23.40
2018-12-17T02:48:05.183Z,20.33
2018-12-17T02:50:31.994Z,19.47
2018-12-17T02:52:58.468Z,18.17
2018-12-17T02:55:25.940Z,22.03
2018-12-17T02:57:52.522Z,20.13
2018-12-17T03:00:18.858Z,20.17
2018-12-17T03:02:45.380Z,17.43
2018-12-17T03:05:12.071Z,20.27
2018-12-17T03:07:38.514Z,17.37
2018-12-17T03:10:05.272Z,16.37
2018-12-17T03:12:32.093Z,18.93
2018-12-17T03:14:58.533Z,19.70
2018-12-17T03:17:25.136Z,16.80
2018-12-17T03:19:51.970Z,18.83
2018-12-17T03:22:18.427Z,18.27
2018-12-17T03:24:44.961Z,16.00
2018-12-17T03:27:11.514Z,14.50
2018-12-17T03:29:38.317Z,15.77
2018-12-17T03:32:05.104Z,16.37
2018-12-17T03:34:31.614Z,15.63
2018-12-17T03:36:58.043Z,16.47
2018-12-17T03:39:24.859Z,15.07
2018-12-17T03:41:51.399Z,15.53
2018-12-17T03:44:18.001Z,14.57
2018-12-17T03:46:44.443Z,15.17
2018-12-17T03:49:10.998Z,18.53
2018-12-17T03:51:37.490Z,17.17
2018-12-17T03:54:04.038Z,14.77
2018-12-17T03:56:30.519Z,14.43
2018-12-17T03:58:59.399Z,14.47
2018-12-17T04:01:26.148Z,16.37
2018-12-17T04:03:52.612Z,11.63
2018-12-17T04:06:19.041Z,14.47
2018-12-17T04:08:45.514Z,11.13
2018-12-17T04:11:11.971Z,11.53
2018-12-17T04:13:38.869Z,12.27
2018-12-17T04:16:05.466Z,13.57
2018-12-17T04:18:32.231Z,9.77
2018-12-17T04:20:59.014Z,13.13
2018-12-17T04:23:25.434Z,11.47
2018-12-17T04:25:51.944Z,8.70
2018-12-17T04:28:18.377Z,9.80
2018-12-17T04:30:45.161Z,10.03
2018-12-17T04:33:11.977Z,12.20
2018-12-17T04:35:38.455Z,8.60
2018-12-17T04:38:05.232Z,11.67
2018-12-17T04:40:31.726Z,10.53
2018-12-17T04:42:58.328Z,9.03
2018-12-17T04:45:24.788Z,10.37
2018-12-17T04:47:51.619Z,9.87
2018-12-17T04:50:18.285Z,8.20
2018-12-17T04:52:45.251Z,11.60
2018-12-17T04:55:11.762Z,9.10
2018-12-17T04:57:38.477Z,10.33
2018-12-17T05:00:06.539Z,10.60
2018-12-17T05:02:33.861Z,9.73
2018-12-17T05:05:00.921Z,11.30
2018-12-17T05:07:28.045Z,11.37
2018-12-17T05:09:55.501Z,9.23
2018-12-17T05:12:21.974Z,8.63
2018-12-17T05:14:48.788Z,10.83
2018-12-17T05:17:15.270Z,11.73
2018-12-17T05:19:41.769Z,9.33
2018-12-17T05:22:08.234Z,11.60
2018-12-17T05:24:34.654Z,12.17
2018-12-17T05:27:01.541Z,10.00
2018-12-17T05:29:27.983Z,12.17
2018-12-17T05:31:54.443Z,10.77
2018-12-17T05:34:20.882Z,9.93
2018-12-17T05:36:47.318Z,9.97
2018-12-17T05:39:13.740Z,11.63
2018-12-17T05:41:40.187Z,10.23
2018-12-17T05:44:06.647Z,11.87
2018-12-17T05:46:33.111Z,12.90
2018-12-17T05:48:59.795Z,12.20
2018-12-17T05:51:26.603Z,12.10
2018-12-17T05:53:53.088Z,10.23
2018-12-17T05:56:19.930Z,12.13
2018-12-17T05:58:46.504Z,12.00
2018-12-17T06:01:13.059Z,11.37
2018-12-17T06:03:39.902Z,16.17
2018-12-17T06:06:06.431Z,12.40
2018-12-17T06:08:33.219Z,13.23
2018-12-17T06:10:59.718Z,12.27
2018-12-17T06:13:26.234Z,13.83
2018-12-17T06:15:52.718Z,13.00
2018-12-17T06:18:19.527Z,12.53
2018-12-17T06:20:46.692Z,13.67
2018-12-17T06:23:13.596Z,13.70
2018-12-17T06:25:40.086Z,11.67
2018-12-17T06:28:06.751Z,13.00
2018-12-17T06:30:33.505Z,12.10
2018-12-17T06:32:59.925Z,13.27
2018-12-17T06:35:26.573Z,14.47
2018-12-17T06:37:53.036Z,13.63
2018-12-17T06:40:19.441Z,15.17
2018-12-17T06:42:45.878Z,13.87
2018-12-17T06:45:12.413Z,13.37
2018-12-17T06:47:38.902Z,11.90
2018-12-17T06:50:05.502Z,13.90
2018-12-17T06:52:32.017Z,13.60
2018-12-17T06:54:58.416Z,13.00
2018-12-17T06:57:24.840Z,14.50
2018-12-17T06:59:51.300Z,13.83
2018-12-17T07:02:17.938Z,14.30
2018-12-17T07:04:44.429Z,15.23
2018-12-17T07:07:10.978Z,15.00
2018-12-17T07:09:37.717Z,19.13
2018-12-17T07:12:04.637Z,18.23
2018-12-17T07:14:36.451Z,15.60
2018-12-17T07:17:00.622Z,16.93
2018-12-17T07:19:30.447Z,17.07
2018-12-17T07:21:57.558Z,15.93
2018-12-17T07:24:24.408Z,17.07
2018-12-17T07:26:51.493Z,15.00
2018-12-17T07:29:18.850Z,15.83
2018-12-17T07:31:45.839Z,17.60
2018-12-17T07:34:13.084Z,20.27
2018-12-17T07:36:40.382Z,18.00
2018-12-17T07:39:09.074Z,19.53
2018-12-17T07:41:36.375Z,17.83
2018-12-17T07:44:03.748Z,18.37
2018-12-17T07:46:31.047Z,21.30
2018-12-17T07:48:57.881Z,23.20
2018-12-17T07:51:24.371Z,19.17
2018-12-17T07:53:50.847Z,21.07
2018-12-17T07:56:18.631Z,21.67
2018-12-17T07:58:45.560Z,16.33
2018-12-17T08:01:12.761Z,21.40
2018-12-17T08:03:39.261Z,21.67
2018-12-17T08:06:05.742Z,20.67
2018-12-17T08:08:35.305Z,23.10
2018-12-17T08:11:00.767Z,21.30
2018-12-17T08:13:27.516Z,24.07
2018-12-17T08:15:55.199Z,19.77
2018-12-17T08:18:22.769Z,20.63
2018-12-17T08:20:49.975Z,21.00
2018-12-17T08:23:16.558Z,18.90
2018-12-17T08:25:44.270Z,19.73
2018-12-17T08:28:10.741Z,20.50
2018-12-17T08:30:37.528Z,21.53
2018-12-17T08:33:04.446Z,19.83
2018-12-17T08:35:30.960Z,20.23
2018-12-17T08:37:57.491Z,17.90
2018-12-17T08:40:23.982Z,25.60
2018-12-17T08:42:50.384Z,19.50
2018-12-17T08:45:18.748Z,22.83
2018-12-17T08:47:45.594Z,20.43
2018-12-17T08:50:12.167Z,18.93
2018-12-17T08:52:38.721Z,21.43
2018-12-17T08:55:05.418Z,22.93
2018-12-17T08:57:37.806Z,25.60
2018-12-17T09:00:00.382Z,21.40
2018-12-17T09:02:27.675Z,21.57
2018-12-17T09:04:54.523Z,20.53
2018-12-17T09:07:20.979Z,19.77
2018-12-17T09:09:47.833Z,21.97
2018-12-17T09:12:14.285Z,17.37
2018-12-17T09:14:40.948Z,22.93
2018-12-17T09:17:07.767Z,21.90
2018-12-17T09:19:34.189Z,23.57
2018-12-17T09:22:00.758Z,17.33
2018-12-17T09:24:27.308Z,18.37
2018-12-17T09:26:54.021Z,16.27
2018-12-17T09:29:20.587Z,21.13
2018-12-17T09:31:47.203Z,16.50
2018-12-17T09:34:13.804Z,19.57
2018-12-17T09:36:40.341Z,19.07
2018-12-17T09:39:07.399Z,20.37
2018-12-17T09:41:33.938Z,18.40
2018-12-17T09:44:00.843Z,18.20
2018-12-17T09:46:27.431Z,15.30
2018-12-17T09:48:54.382Z,19.07
2018-12-17T09:51:20.968Z,14.33
2018-12-17T09:53:47.427Z,17.43
2018-12-17T09:56:14.272Z,15.50
2018-12-17T09:58:41.139Z,14.50
2018-12-17T10:01:07.642Z,12.03
2018-12-17T10:03:34.156Z,17.10
2018-12-17T10:06:00.631Z,15.03
2018-12-17T10:08:27.257Z,15.50
2018-12-17T10:10:53.802Z,16.77
2018-12-17T10:13:20.320Z,16.73
2018-12-17T10:15:46.754Z,17.73
2018-12-17T10:18:13.199Z,17.73
2018-12-17T10:20:39.642Z,16.47
2018-12-17T10:23:06.253Z,16.20
2018-12-17T10:25:32.704Z,18.50
2018-12-17T10:27:59.148Z,18.73
2018-12-17T10:30:32.291Z,18.90
2018-12-17T10:32:54.498Z,20.60
2018-12-17T10:35:20.943Z,18.83
2018-12-17T10:37:47.437Z,17.50
2018-12-17T10:40:13.935Z,19.83
2018-12-17T10:42:40.440Z,15.73
2018-12-17T10:45:07.107Z,15.50
2018-12-17T10:47:34.327Z,22.57
2018-12-17T10:50:01.016Z,20.00
2018-12-17T10:52:27.483Z,20.57
2018-12-17T10:54:54.038Z,21.63
2018-12-17T10:57:20.838Z,24.47
2018-12-17T10:59:47.289Z,24.30
2018-12-17T11:02:16.716Z,22.70
2018-12-17T11:04:49.661Z,20.63
2018-12-17T11:07:16.066Z,18.23
2018-12-17T11:09:42.487Z,20.50
2018-12-17T11:12:08.999Z,24.40
2018-12-17T11:14:35.824Z,24.00
2018-12-17T11:17:02.265Z,23.30
2018-12-17T11:19:28.870Z,24.77
2018-12-17T11:21:55.522Z,19.67
2018-12-17T11:24:22.425Z,21.20
2018-12-17T11:26:49.214Z,20.87
2018-12-17T11:29:15.665Z,20.03
2018-12-17T11:31:42.345Z,23.67
2018-12-17T11:34:08.922Z,19.30
2018-12-17T11:36:35.449Z,24.20
2018-12-17T11:39:02.068Z,21.53
2018-12-17T11:41:28.473Z,21.23
2018-12-17T11:43:55.058Z,25.10
2018-12-17T11:46:21.555Z,22.37
2018-12-17T11:48:48.233Z,24.57
2018-12-17T11:51:14.822Z,21.73
2018-12-17T11:53:42.406Z,27.87
2018-12-17T11:56:08.831Z,23.37
2018-12-17T11:58:35.718Z,23.73
2018-12-17T12:01:02.805Z,20.63
2018-12-17T12:03:30.320Z,18.60
2018-12-17T12:05:56.854Z,19.77
2018-12-17T12:08:23.376Z,22.07
2018-12-17T12:10:49.783Z,18.10
2018-12-17T12:13:16.202Z,19.43
2018-12-17T12:15:42.732Z,21.60
2018-12-17T12:18:09.228Z,20.70
2018-12-17T12:20:35.986Z,19.77
2018-12-17T12:23:02.542Z,23.47
2018-12-17T12:25:29.061Z,17.53
2018-12-17T12:27:55.750Z,16.77
2018-12-17T12:30:22.303Z,19.13
2018-12-17T12:32:48.737Z,18.67
2018-12-17T12:35:15.217Z,17.33
2018-12-17T12:37:41.603Z,17.80
2018-12-17T12:40:08.396Z,20.17
2018-12-17T12:42:35.259Z,25.60
2018-12-17T12:45:01.852Z,19.10
2018-12-17T12:47:28.678Z,19.13
2018-12-17T12:49:55.528Z,16.10
2018-12-17T12:52:22.131Z,17.33
2018-12-17T12:54:48.689Z,21.63
2018-12-17T12:57:15.220Z,20.43
2018-12-17T13:02:42.316Z,19.07
2018-12-17T13:05:26.007Z,18.63
2018-12-17T13:07:52.458Z,20.97
2018-12-17T13:10:19.348Z,15.43
2018-12-17T13:12:46.050Z,18.20
2018-12-17T13:15:12.667Z,19.20
2018-12-17T13:17:39.133Z,17.93
2018-12-17T13:20:05.743Z,15.63
2018-12-17T13:22:32.279Z,15.87
2018-12-17T13:24:58.912Z,17.80
2018-12-17T13:27:25.385Z,20.93
2018-12-17T13:29:51.890Z,21.27
2018-12-17T13:32:18.475Z,15.77
2018-12-17T13:34:45.123Z,15.00
2018-12-17T13:37:11.580Z,15.47
2018-12-17T13:39:39.090Z,21.47
2018-12-17T13:42:05.470Z,15.93
2018-12-17T13:44:31.941Z,16.63
2018-12-17T13:46:59.481Z,16.97
2018-12-17T13:49:27.712Z,20.23
2018-12-17T13:52:00.293Z,16.97
2018-12-17T13:54:26.821Z,16.83
2018-12-17T13:56:53.266Z,15.00
2018-12-17T13:59:20.018Z,17.43
2018-12-17T14:01:51.432Z,15.63
2018-12-17T14:04:15.541Z,19.13
2018-12-17T14:06:42.278Z,18.23
2018-12-17T14:09:08.796Z,19.50
2018-12-17T14:11:35.191Z,16.90
2018-12-17T14:14:01.705Z,20.07
2018-12-17T14:16:34.745Z,15.37
2018-12-17T14:19:07.124Z,15.23
2018-12-17T14:21:40.031Z,22.57
2018-12-17T14:24:06.502Z,19.90
2018-12-17T14:26:32.924Z,14.80
2018-12-17T14:28:59.391Z,20.17
2018-12-17T14:31:28.930Z,16.40
2018-12-17T14:33:54.293Z,17.63
2018-12-17T14:36:20.781Z,16.13
2018-12-17T14:38:47.757Z,19.73
2018-12-17T14:41:14.598Z,18.83
2018-12-17T14:43:41.409Z,14.37
2018-12-17T14:46:07.989Z,16.87
2018-12-17T14:48:34.425Z,21.20
2018-12-17T14:51:00.989Z,21.30
2018-12-17T14:53:27.525Z,18.30
2018-12-17T14:55:54.065Z,16.70
2018-12-17T14:58:20.590Z,16.83
2018-12-17T15:00:47.092Z,25.00
2018-12-17T15:03:13.609Z,17.47
2018-12-17T15:05:40.043Z,22.23
2018-12-17T15:08:06.705Z,17.23
2018-12-17T15:10:33.191Z,20.50
2018-12-17T15:13:00.098Z,17.87
2018-12-17T15:15:27.536Z,16.23
2018-12-17T15:17:54.014Z,18.20
2018-12-17T15:20:20.648Z,16.97
2018-12-17T15:22:47.154Z,17.97
2018-12-17T15:25:14.019Z,15.00
2018-12-17T15:27:40.594Z,20.07
2018-12-17T15:30:07.411Z,17.60
2018-12-17T15:32:34.008Z,14.27
2018-12-17T15:35:01.040Z,21.57
2018-12-17T15:37:28.121Z,18.20
2018-12-17T15:39:54.638Z,17.93
2018-12-17T15:42:24.389Z,13.30
2018-12-17T15:44:51.190Z,14.43
2018-12-17T15:47:17.625Z,18.17
2018-12-17T15:49:44.105Z,16.00
2018-12-17T15:52:11.008Z,18.10
2018-12-17T15:54:38.729Z,14.37
2018-12-17T15:57:05.236Z,14.17
2018-12-17T15:59:33.284Z,15.33
2018-12-17T16:01:59.956Z,13.43
2018-12-17T16:04:26.698Z,15.77
2018-12-17T16:06:53.169Z,16.93
2018-12-17T16:09:20.081Z,19.03
2018-12-17T16:11:46.939Z,12.33
2018-12-17T16:14:13.765Z,15.47
2018-12-17T16:16:40.203Z,14.97
2018-12-17T16:19:07.510Z,15.60
2018-12-17T16:21:34.154Z,17.40
2018-12-17T16:24:00.613Z,14.50
2018-12-17T16:26:27.429Z,14.80
2018-12-17T16:28:53.857Z,18.57
2018-12-17T16:31:20.341Z,16.83
2018-12-17T16:33:46.856Z,16.93
2018-12-17T16:36:13.868Z,18.73
2018-12-17T16:38:42.219Z,19.33
2018-12-17T16:41:09.020Z,15.70
2018-12-17T16:43:35.795Z,17.27
2018-12-17T16:46:03.680Z,18.43
2018-12-17T16:48:30.854Z,19.50
2018-12-17T16:50:57.447Z,20.80
2018-12-17T16:53:24.716Z,24.70
2018-12-17T16:55:51.681Z,22.80
2018-12-17T16:58:18.434Z,18.87
2018-12-17T17:00:45.014Z,19.37
2018-12-17T17:03:11.553Z,20.50
2018-12-17T17:05:38.437Z,20.23
2018-12-17T17:08:05.286Z,23.13
2018-12-17T17:10:31.750Z,18.40
2018-12-17T17:13:00.107Z,19.80
2018-12-17T17:15:26.546Z,19.70
2018-12-17T17:17:52.941Z,17.73
2018-12-17T17:20:19.391Z,22.33
2018-12-17T17:22:46.189Z,19.37
2018-12-17T17:25:12.780Z,16.57
2018-12-17T17:27:39.567Z,19.10
2018-12-17T17:30:06.606Z,20.70
2018-12-17T17:32:33.122Z,27.40
2018-12-17T17:34:59.592Z,22.10
2018-12-17T17:37:26.222Z,25.60
2018-12-17T17:39:52.713Z,19.10
2018-12-17T17:42:19.167Z,26.63
2018-12-17T17:44:46.015Z,23.27
2018-12-17T17:47:12.541Z,24.17
2018-12-17T17:49:38.954Z,23.00
2018-12-17T17:52:05.849Z,24.70
2018-12-17T17:54:32.294Z,24.87
2018-12-17T17:56:58.768Z,24.80
2018-12-17T17:59:25.177Z,24.07
2018-12-17T18:01:52.572Z,26.83
2018-12-17T18:04:19.056Z,26.90
2018-12-17T18:06:45.938Z,22.10
2018-12-17T18:09:12.498Z,29.30
2018-12-17T18:11:38.993Z,28.50
2018-12-17T18:14:05.464Z,30.27
2018-12-17T18:16:31.993Z,28.43
2018-12-17T18:18:58.803Z,26.10
2018-12-17T18:21:25.277Z,25.10
2018-12-17T18:23:52.235Z,29.57
2018-12-17T18:26:18.731Z,27.20
2018-12-17T18:28:46.180Z,32.23
2018-12-17T18:31:12.814Z,24.50
2018-12-17T18:33:39.259Z,29.80
2018-12-17T18:36:05.912Z,34.07
2018-12-17T18:38:35.941Z,29.70
2018-12-17T18:41:03.208Z,31.20
2018-12-17T18:43:30.126Z,26.23
2018-12-17T18:45:57.082Z,26.67
2018-12-17T18:48:23.722Z,29.70
2018-12-17T18:50:51.184Z,34.20
2018-12-17T18:53:17.677Z,35.80
2018-12-17T18:55:44.168Z,37.27
2018-12-17T18:58:10.646Z,31.10
2018-12-17T19:00:37.172Z,31.23
2018-12-17T19:03:03.618Z,33.47
2018-12-17T19:05:30.050Z,32.53
2018-12-17T19:07:56.676Z,44.40
2018-12-17T19:10:25.485Z,32.40
2018-12-17T19:12:51.980Z,34.13
2018-12-17T19:15:18.440Z,35.27
2018-12-17T19:17:44.931Z,30.17
2018-12-17T19:20:11.904Z,27.83
2018-12-17T19:22:38.693Z,31.80
2018-12-17T19:25:05.488Z,34.73
2018-12-17T19:27:32.064Z,31.27
2018-12-17T19:29:58.494Z,36.17
2018-12-17T19:32:24.915Z,29.63
2018-12-17T19:34:51.334Z,29.40
2018-12-17T19:37:17.776Z,35.23
2018-12-17T19:39:44.196Z,29.87
2018-12-17T19:42:10.662Z,33.63
2018-12-17T19:44:37.122Z,27.10
2018-12-17T19:47:03.616Z,25.83
2018-12-17T19:49:30.137Z,30.40
2018-12-17T19:51:56.655Z,29.83
2018-12-17T19:54:24.649Z,27.80
2018-12-17T19:56:51.400Z,30.50
2018-12-17T19:59:17.905Z,33.37
2018-12-17T20:01:44.342Z,41.07
2018-12-17T20:04:10.907Z,36.23
2018-12-17T20:06:37.237Z,26.47
2018-12-17T20:09:04.146Z,33.23
2018-12-17T20:11:30.676Z,30.27
2018-12-17T20:13:57.024Z,35.83
2018-12-17T20:16:24.575Z,30.90
2018-12-17T20:18:51.285Z,27.37
2018-12-17T20:21:19.213Z,34.97
2018-12-17T20:23:45.598Z,35.80
2018-12-17T20:26:12.027Z,25.30
2018-12-17T20:28:38.665Z,30.10
2018-12-17T20:31:05.083Z,34.13
2018-12-17T20:33:31.518Z,34.57
2018-12-17T20:35:57.904Z,33.40
2018-12-17T20:38:24.282Z,37.10
2018-12-17T20:40:51.004Z,32.57
2018-12-17T20:43:17.459Z,35.43
2018-12-17T20:45:43.762Z,34.53
2018-12-17T20:48:11.283Z,28.90
2018-12-17T20:50:37.698Z,36.13
2018-12-17T20:53:04.220Z,33.10
2018-12-17T20:55:30.928Z,31.37
2018-12-17T20:57:58.906Z,27.47
2018-12-17T21:00:25.618Z,35.60
2018-12-17T21:03:00.075Z,32.10
2018-12-17T21:05:23.026Z,32.63
2018-12-17T21:07:50.031Z,31.07
2018-12-17T21:10:16.366Z,28.43
2018-12-17T21:12:42.882Z,28.73
2018-12-17T21:15:09.367Z,28.90
2018-12-17T21:17:38.883Z,29.53
2018-12-17T21:20:06.859Z,25.13
2018-12-17T21:22:33.366Z,27.70
2018-12-17T21:25:00.195Z,32.00
2018-12-17T21:27:26.646Z,26.73
2018-12-17T21:29:53.119Z,24.47
2018-12-17T21:32:19.653Z,29.23
2018-12-17T21:34:46.303Z,35.67
2018-12-17T21:37:12.718Z,27.23
2018-12-17T21:39:39.146Z,27.03
2018-12-17T21:42:05.937Z,26.00
2018-12-17T21:44:32.415Z,26.87
2018-12-17T21:46:59.213Z,28.70
2018-12-17T21:49:25.664Z,27.73
2018-12-17T21:51:52.301Z,30.23
2018-12-17T21:54:18.796Z,30.40
2018-12-17T21:56:45.342Z,33.07
2018-12-17T21:59:11.810Z,24.17
2018-12-17T22:01:40.288Z,28.03
2018-12-17T22:04:07.006Z,27.13
2018-12-17T22:06:33.502Z,27.07
2018-12-17T22:08:59.999Z,28.03
2018-12-17T22:11:26.485Z,35.77
2018-12-17T22:13:52.933Z,32.67
2018-12-17T22:16:19.468Z,31.43
2018-12-17T22:18:46.421Z,34.40
2018-12-17T22:21:13.254Z,29.93
2018-12-17T22:23:39.754Z,30.97
2018-12-17T22:26:07.547Z,34.20
2018-12-17T22:28:34.260Z,31.10
2018-12-17T22:31:01.330Z,28.20
2018-12-17T22:33:27.828Z,31.40
2018-12-17T22:35:54.244Z,27.93
2018-12-17T22:38:21.075Z,27.27
2018-12-17T22:40:47.566Z,27.53
2018-12-17T22:43:14.019Z,26.87
2018-12-17T22:45:41.213Z,25.37
2018-12-17T22:48:08.708Z,26.90
2018-12-17T22:50:35.341Z,23.77
2018-12-17T22:53:02.692Z,25.03
2018-12-17T22:55:29.274Z,28.17
2018-12-17T22:57:56.272Z,27.03
2018-12-17T23:00:23.087Z,22.87
2018-12-17T23:02:49.903Z,27.40
2018-12-17T23:05:16.792Z,24.03
2018-12-17T23:07:43.295Z,28.90
2018-12-17T23:10:22.997Z,25.57
2018-12-17T23:13:01.801Z,26.43
2018-12-17T23:15:40.534Z,21.37
2018-12-17T23:18:06.771Z,29.47
2018-12-17T23:20:33.232Z,23.87
2018-12-17T23:23:00.070Z,29.00
2018-12-17T23:25:26.561Z,22.10
2018-12-17T23:27:53.128Z,21.33
2018-12-17T23:30:20.426Z,29.73
2018-12-17T23:32:46.849Z,22.97
2018-12-17T23:35:13.351Z,28.23
2018-12-17T23:37:39.817Z,23.20
2018-12-17T23:40:06.801Z,24.67
2018-12-17T23:42:33.787Z,24.17
2018-12-17T23:45:00.678Z,24.23
2018-12-17T23:47:27.577Z,21.33
2018-12-17T23:49:54.110Z,21.80
2018-12-17T23:52:20.744Z,25.30
2018-12-17T23:54:47.629Z,27.33
2018-12-17T23:57:14.100Z,19.27
2018-12-17T23:59:40.538Z,23.57
